HAZ4806 ZBAA-ZYTX
Flight info
| Callsign | HAZ4806 |
|---|---|
| Flight time | N/A |
| Altitude | 29100 |
| Route | DOTRA2G DOTRA B334 KAKAT W31 CHG A575 OMDUS OMD71A |
| Aircraft | B772/H-SDE2E3FGHIJ5LORVWXY/LB1D1 |
Departure
| Time | N/A |
|---|---|
| Airport | Beijing Capital International Airport (ZBAA) |
Arrival
| Time | 2026-04-16 16:34 |
|---|---|
| Airport | Shenyang Taoxian International Airport (ZYTX) |
| Time | Latitude | Longitude | Altitude | Speed | Heading |
|---|---|---|---|---|---|
| 2026-04-16 16:04 | 41.54137 | 120.56735 | 40064 ft | 529 kts | 88° |
| 2026-04-16 16:04 | 41.54449 | 120.61641 | 40072 ft | 531 kts | 88° |
| 2026-04-16 16:04 | 41.55040 | 120.71401 | 40064 ft | 531 kts | 89° |
| 2026-04-16 16:05 | 41.55589 | 120.81185 | 40060 ft | 529 kts | 90° |
| 2026-04-16 16:05 | 41.56079 | 120.90380 | 40071 ft | 530 kts | 90° |
| 2026-04-16 16:06 | 41.56583 | 121.00191 | 40068 ft | 531 kts | 90° |
| 2026-04-16 16:06 | 41.57005 | 121.08650 | 40063 ft | 531 kts | 90° |
| 2026-04-16 16:07 | 41.57481 | 121.18424 | 40069 ft | 530 kts | 90° |
| 2026-04-16 16:07 | 41.57790 | 121.27762 | 40077 ft | 531 kts | 91° |
| 2026-04-16 16:08 | 41.58060 | 121.37627 | 40064 ft | 528 kts | 91° |
| 2026-04-16 16:08 | 41.58192 | 121.42452 | 39614 ft | 523 kts | 92° |
| 2026-04-16 16:08 | 41.58323 | 121.47340 | 38511 ft | 532 kts | 92° |
| 2026-04-16 16:09 | 41.58453 | 121.52349 | 37388 ft | 543 kts | 92° |
| 2026-04-16 16:09 | 41.58584 | 121.57402 | 35945 ft | 551 kts | 92° |
| 2026-04-16 16:09 | 41.58716 | 121.62483 | 35122 ft | 551 kts | 93° |
| 2026-04-16 16:09 | 41.58848 | 121.67514 | 34736 ft | 539 kts | 94° |
| 2026-04-16 16:10 | 41.58977 | 121.72438 | 34509 ft | 525 kts | 95° |
| 2026-04-16 16:10 | 41.59098 | 121.77196 | 34189 ft | 514 kts | 95° |
| 2026-04-16 16:10 | 41.59215 | 121.81950 | 33582 ft | 509 kts | 95° |
| 2026-04-16 16:10 | 41.59327 | 121.86661 | 32655 ft | 511 kts | 94° |
| 2026-04-16 16:11 | 41.59436 | 121.91415 | 31585 ft | 516 kts | 94° |
| 2026-04-16 16:11 | 41.59544 | 121.96182 | 30541 ft | 520 kts | 93° |
| 2026-04-16 16:11 | 41.59649 | 122.00811 | 29802 ft | 517 kts | 93° |
| 2026-04-16 16:11 | 41.59755 | 122.05486 | 29394 ft | 507 kts | 92° |
| 2026-04-16 16:12 | 41.59777 | 122.10113 | 28941 ft | 495 kts | 98° |
| 2026-04-16 16:12 | 41.59413 | 122.14597 | 28374 ft | 487 kts | 102° |
| 2026-04-16 16:12 | 41.58935 | 122.19064 | 27655 ft | 484 kts | 103° |
| 2026-04-16 16:12 | 41.58454 | 122.23452 | 27004 ft | 480 kts | 102° |
| 2026-04-16 16:13 | 41.57968 | 122.27855 | 26448 ft | 474 kts | 102° |
| 2026-04-16 16:13 | 41.57489 | 122.32179 | 25799 ft | 470 kts | 102° |
| 2026-04-16 16:13 | 41.57012 | 122.36449 | 25166 ft | 466 kts | 102° |
| 2026-04-16 16:13 | 41.56537 | 122.40695 | 24643 ft | 459 kts | 102° |
| 2026-04-16 16:14 | 41.56073 | 122.44823 | 24061 ft | 454 kts | 102° |
| 2026-04-16 16:14 | 41.55601 | 122.49007 | 23417 ft | 451 kts | 101° |
| 2026-04-16 16:14 | 41.55138 | 122.53095 | 22893 ft | 445 kts | 101° |
| 2026-04-16 16:14 | 41.54680 | 122.57125 | 22327 ft | 441 kts | 101° |
| 2026-04-16 16:15 | 41.54219 | 122.61157 | 21702 ft | 438 kts | 101° |
| 2026-04-16 16:15 | 41.53761 | 122.65158 | 21042 ft | 437 kts | 101° |
| 2026-04-16 16:15 | 41.53306 | 122.69117 | 20372 ft | 436 kts | 101° |
| 2026-04-16 16:15 | 41.52846 | 122.73112 | 19746 ft | 433 kts | 101° |
| 2026-04-16 16:16 | 41.52390 | 122.77058 | 19111 ft | 430 kts | 101° |
| 2026-04-16 16:16 | 41.51939 | 122.80947 | 18526 ft | 427 kts | 101° |
| 2026-04-16 16:16 | 41.51489 | 122.84815 | 17923 ft | 424 kts | 101° |
| 2026-04-16 16:16 | 41.51083 | 122.88294 | 17422 ft | 421 kts | 101° |
| 2026-04-16 16:17 | 41.50639 | 122.92101 | 16926 ft | 415 kts | 102° |
| 2026-04-16 16:17 | 41.50200 | 122.95847 | 16443 ft | 409 kts | 102° |
| 2026-04-16 16:17 | 41.49760 | 122.99585 | 15934 ft | 404 kts | 102° |
| 2026-04-16 16:17 | 41.49323 | 123.03285 | 15344 ft | 402 kts | 103° |
| 2026-04-16 16:18 | 41.48888 | 123.06959 | 14805 ft | 398 kts | 103° |
| 2026-04-16 16:18 | 41.48461 | 123.10557 | 14351 ft | 391 kts | 104° |
| 2026-04-16 16:18 | 41.48030 | 123.14148 | 13874 ft | 385 kts | 104° |
| 2026-04-16 16:18 | 41.47609 | 123.17636 | 13374 ft | 381 kts | 104° |
| 2026-04-16 16:19 | 41.47300 | 123.21114 | 12825 ft | 381 kts | 97° |
| 2026-04-16 16:19 | 41.47477 | 123.24675 | 12272 ft | 384 kts | 85° |
| 2026-04-16 16:19 | 41.48112 | 123.28151 | 11747 ft | 382 kts | 78° |
| 2026-04-16 16:19 | 41.48830 | 123.31514 | 11249 ft | 378 kts | 78° |
| 2026-04-16 16:20 | 41.49548 | 123.34868 | 10707 ft | 375 kts | 78° |
| 2026-04-16 16:20 | 41.50261 | 123.38210 | 10185 ft | 371 kts | 78° |
| 2026-04-16 16:20 | 41.51185 | 123.41455 | 9721 ft | 369 kts | 67° |
| 2026-04-16 16:20 | 41.52362 | 123.44413 | 9578 ft | 355 kts | 65° |
| 2026-04-16 16:21 | 41.53522 | 123.47250 | 9522 ft | 340 kts | 64° |
| 2026-04-16 16:21 | 41.54628 | 123.49956 | 9494 ft | 324 kts | 65° |
| 2026-04-16 16:21 | 41.55702 | 123.52587 | 9486 ft | 309 kts | 65° |
| 2026-04-16 16:21 | 41.56710 | 123.55057 | 9437 ft | 297 kts | 64° |
| 2026-04-16 16:22 | 41.57915 | 123.57313 | 9184 ft | 296 kts | 52° |
| 2026-04-16 16:22 | 41.59249 | 123.59363 | 8830 ft | 297 kts | 50° |
| 2026-04-16 16:22 | 41.60614 | 123.61414 | 8516 ft | 296 kts | 51° |
| 2026-04-16 16:22 | 41.62003 | 123.63512 | 8240 ft | 294 kts | 51° |
| 2026-04-16 16:23 | 41.63362 | 123.65572 | 7947 ft | 292 kts | 51° |
| 2026-04-16 16:23 | 41.64702 | 123.67606 | 7674 ft | 289 kts | 50° |
| 2026-04-16 16:23 | 41.66003 | 123.69559 | 7667 ft | 276 kts | 51° |
| 2026-04-16 16:23 | 41.67244 | 123.71427 | 7661 ft | 263 kts | 51° |
| 2026-04-16 16:24 | 41.68449 | 123.73242 | 7543 ft | 256 kts | 51° |
| 2026-04-16 16:24 | 41.69618 | 123.75028 | 7262 ft | 256 kts | 51° |
| 2026-04-16 16:24 | 41.70800 | 123.76841 | 7033 ft | 254 kts | 51° |
| 2026-04-16 16:24 | 41.71969 | 123.78630 | 6770 ft | 253 kts | 51° |
| 2026-04-16 16:25 | 41.73122 | 123.80395 | 6522 ft | 252 kts | 51° |
| 2026-04-16 16:25 | 41.74298 | 123.82188 | 6277 ft | 251 kts | 50° |
| 2026-04-16 16:25 | 41.75452 | 123.83951 | 6059 ft | 249 kts | 50° |
| 2026-04-16 16:25 | 41.76748 | 123.85480 | 5747 ft | 250 kts | 26° |
| 2026-04-16 16:26 | 41.78421 | 123.86021 | 5380 ft | 246 kts | 353° |
| 2026-04-16 16:26 | 41.79998 | 123.85414 | 5162 ft | 232 kts | 324° |
| 2026-04-16 16:26 | 41.81289 | 123.84140 | 4931 ft | 227 kts | 316° |
| 2026-04-16 16:26 | 41.82466 | 123.82800 | 4731 ft | 223 kts | 313° |
| 2026-04-16 16:27 | 41.83382 | 123.81193 | 4450 ft | 213 kts | 287° |
| 2026-04-16 16:27 | 41.83595 | 123.79289 | 4071 ft | 206 kts | 262° |
| 2026-04-16 16:27 | 41.83104 | 123.77536 | 3863 ft | 197 kts | 236° |
| 2026-04-16 16:27 | 41.82255 | 123.76099 | 3873 ft | 200 kts | 231° |
| 2026-04-16 16:28 | 41.81324 | 123.74649 | 3875 ft | 200 kts | 230° |
| 2026-04-16 16:28 | 41.80400 | 123.73251 | 3879 ft | 201 kts | 230° |
| 2026-04-16 16:28 | 41.79484 | 123.71857 | 3876 ft | 197 kts | 230° |
| 2026-04-16 16:28 | 41.78586 | 123.70483 | 3786 ft | 190 kts | 230° |
| 2026-04-16 16:29 | 41.77733 | 123.69177 | 3569 ft | 181 kts | 231° |
| 2026-04-16 16:29 | 41.76929 | 123.67944 | 3425 ft | 167 kts | 231° |
| 2026-04-16 16:29 | 41.76182 | 123.66800 | 3307 ft | 162 kts | 231° |
| 2026-04-16 16:29 | 41.75438 | 123.65665 | 3160 ft | 157 kts | 231° |
| 2026-04-16 16:30 | 41.74733 | 123.64592 | 3024 ft | 157 kts | 231° |
| 2026-04-16 16:30 | 41.73993 | 123.63470 | 2823 ft | 157 kts | 231° |
| 2026-04-16 16:30 | 41.73279 | 123.62386 | 2630 ft | 156 kts | 231° |
| 2026-04-16 16:30 | 41.72552 | 123.61283 | 2429 ft | 157 kts | 231° |
| 2026-04-16 16:31 | 41.71826 | 123.60181 | 2226 ft | 155 kts | 230° |
| 2026-04-16 16:31 | 41.71089 | 123.59066 | 2025 ft | 159 kts | 231° |
| 2026-04-16 16:31 | 41.70351 | 123.57947 | 1827 ft | 154 kts | 231° |
| 2026-04-16 16:31 | 41.69651 | 123.56885 | 1619 ft | 146 kts | 231° |
| 2026-04-16 16:32 | 41.68985 | 123.55879 | 1428 ft | 138 kts | 231° |
| 2026-04-16 16:32 | 41.68355 | 123.54923 | 1247 ft | 136 kts | 231° |
| 2026-04-16 16:32 | 41.67728 | 123.53972 | 1064 ft | 136 kts | 230° |
| 2026-04-16 16:32 | 41.67102 | 123.53020 | 891 ft | 136 kts | 230° |
| 2026-04-16 16:33 | 41.66466 | 123.52060 | 727 ft | 138 kts | 229° |
| 2026-04-16 16:33 | 41.65816 | 123.51100 | 513 ft | 137 kts | 230° |
| 2026-04-16 16:33 | 41.65179 | 123.50127 | 306 ft | 140 kts | 231° |
| 2026-04-16 16:33 | 41.64545 | 123.49161 | 215 ft | 128 kts | 230° |
| 2026-04-16 16:34 | 41.64036 | 123.48394 | 213 ft | 88 kts | 228° |
| 2026-04-16 16:34 | 41.63730 | 123.47931 | 213 ft | 43 kts | 229° |
| 2026-04-16 16:34 | 41.63605 | 123.47733 | 213 ft | 23 kts | 231° |
| 2026-04-16 16:34 | 41.63483 | 123.47578 | 213 ft | 24 kts | 216° |
| 2026-04-16 16:35 | 41.63343 | 123.47485 | 213 ft | 15 kts | 198° |
| 2026-04-16 16:35 | 41.63233 | 123.47461 | 213 ft | 16 kts | 167° |
| 2026-04-16 16:35 | 41.63135 | 123.47565 | 213 ft | 18 kts | 137° |
| 2026-04-16 16:35 | 41.63128 | 123.47716 | 213 ft | 19 kts | 49° |
| 2026-04-16 16:36 | 41.63218 | 123.47865 | 213 ft | 21 kts | 77° |
| 2026-04-16 16:36 | 41.63229 | 123.48061 | 213 ft | 14 kts | 76° |
| 2026-04-16 16:36 | 41.63244 | 123.48147 | 213 ft | 1 kts | 78° |
| 2026-04-16 16:36 | 41.63245 | 123.48154 | 213 ft | 0 kts | 78° |